Time;durP1;ratioP1;P1;durP2;ratioP2;P2;SDS_P1;SDS_P2;PMS_P1;PMS_P2;Temp;Humidity;BMP_temperature;BMP_pressure;BME280_temperature;BME280_humidity;BME280_pressure;Samples;Min_cycle;Max_cycle;Signal;HPM_P1;HPM_P2
2021/07/10 08:30:45;;;;;;;6.63;6.13;;;21.10;99.90;;;;;;5783373;24;20533;-84
2021/07/10 08:40:05;;;;;;;6.17;5.77;;;21.40;99.90;;;;;;5795022;24;20412;-84
2021/07/10 08:42:34;;;;;;;7.00;6.50;;;21.60;99.90;;;;;;6111452;23;20424;-84
2021/07/10 08:45:07;;;;;;;5.67;5.30;;;21.70;99.90;;;;;;6110170;23;20393;-83
2021/07/10 08:47:36;;;;;;;6.93;6.30;;;21.70;99.90;;;;;;6112621;23;20433;-82
2021/07/10 08:50:05;;;;;;;4.90;4.60;;;21.80;99.90;;;;;;6108822;23;20755;-81
2021/07/10 08:52:34;;;;;;;6.80;6.40;;;21.80;99.90;;;;;;6107981;23;20461;-83
2021/07/10 08:55:03;;;;;;;6.27;5.37;;;21.90;99.90;;;;;;6108101;23;20420;-82
2021/07/10 08:57:34;;;;;;;5.70;5.27;;;21.90;99.90;;;;;;6108300;23;20401;-83
2021/07/10 09:00:00;;;;;;;5.57;5.27;;;22.00;99.90;;;;;;6109114;23;20411;-86
2021/07/10 09:02:27;;;;;;;5.90;5.40;;;22.10;99.90;;;;;;6109682;23;20576;-82
2021/07/10 09:04:59;;;;;;;6.20;5.73;;;22.20;99.90;;;;;;6111137;23;20429;-85
2021/07/10 09:07:26;;;;;;;6.07;5.67;;;22.30;99.90;;;;;;6110490;23;20462;-85
2021/07/10 09:09:53;;;;;;;4.50;4.20;;;22.40;99.50;;;;;;6109597;23;20416;-85
2021/07/10 09:12:30;;;;;;;6.30;5.80;;;22.50;99.50;;;;;;6108772;23;20450;-84
2021/07/10 09:14:57;;;;;;;5.23;4.83;;;22.50;99.80;;;;;;6109065;23;20435;-85
2021/07/10 09:17:25;;;;;;;4.77;4.37;;;22.50;98.90;;;;;;6111139;23;20448;-85
2021/07/10 09:19:54;;;;;;;4.33;4.03;;;22.60;98.80;;;;;;6112611;23;20407;-84
2021/07/10 09:22:26;;;;;;;4.43;4.13;;;22.70;98.20;;;;;;6112109;23;20444;-84
2021/07/10 09:24:57;;;;;;;5.43;4.93;;;22.70;98.80;;;;;;6114804;23;20493;-84
2021/07/10 09:27:24;;;;;;;4.90;4.60;;;22.80;98.30;;;;;;6114470;23;20444;-84
2021/07/10 09:29:52;;;;;;;5.23;4.83;;;22.90;97.90;;;;;;6115569;23;20415;-84
2021/07/10 09:32:21;;;;;;;4.97;4.67;;;23.00;98.70;;;;;;6113685;23;20447;-84
2021/07/10 09:34:50;;;;;;;3.80;3.57;;;23.10;98.60;;;;;;6115096;23;20445;-84
2021/07/10 09:37:19;;;;;;;4.53;4.13;;;23.20;97.90;;;;;;6112721;23;20412;-84
2021/07/10 09:39:55;;;;;;;4.30;4.00;;;23.30;95.80;;;;;;6114025;23;20484;-83
2021/07/10 09:42:25;;;;;;;5.70;4.30;;;23.40;94.60;;;;;;6113789;23;20505;-84
2021/07/10 09:44:56;;;;;;;3.80;3.60;;;23.50;94.80;;;;;;6114287;23;20417;-84
2021/07/10 09:47:28;;;;;;;3.93;3.73;;;23.60;94.50;;;;;;6112861;23;20503;-84
2021/07/10 09:49:56;;;;;;;4.03;3.80;;;23.60;94.90;;;;;;6113947;23;20907;-84
2021/07/10 09:52:24;;;;;;;4.20;3.80;;;23.60;94.90;;;;;;6111751;23;20435;-84
2021/07/10 09:54:54;;;;;;;3.90;3.70;;;23.60;94.80;;;;;;6110873;23;20422;-85
2021/07/10 09:57:22;;;;;;;3.70;3.50;;;23.70;94.80;;;;;;6112065;23;20393;-83
2021/07/10 09:59:54;;;;;;;4.20;3.80;;;23.80;96.00;;;;;;6107613;23;20412;-86
2021/07/10 10:02:26;;;;;;;4.50;4.10;;;23.90;93.50;;;;;;6112309;23;20460;-85
2021/07/10 10:05:02;;;;;;;7.33;4.40;;;23.90;95.10;;;;;;6108514;23;20439;-84
2021/07/10 10:07:28;;;;;;;4.23;3.93;;;24.00;95.10;;;;;;6109982;23;20463;-82
2021/07/10 10:09:57;;;;;;;4.83;4.30;;;24.10;95.60;;;;;;6108086;23;20811;-81
2021/07/10 10:12:25;;;;;;;4.03;3.60;;;24.30;95.70;;;;;;6103477;23;20452;-82
2021/07/10 10:14:58;;;;;;;4.23;3.93;;;24.40;94.40;;;;;;6100277;23;20417;-85
2021/07/10 10:17:26;;;;;;;3.93;3.63;;;24.50;93.10;;;;;;6100635;23;20399;-85
2021/07/10 10:19:54;;;;;;;4.27;3.97;;;24.60;93.10;;;;;;6099011;23;20419;-85
2021/07/10 10:22:22;;;;;;;4.53;4.13;;;24.70;94.50;;;;;;6099003;23;20432;-85
2021/07/10 10:24:50;;;;;;;4.50;4.20;;;24.80;93.60;;;;;;6100327;23;20415;-84
2021/07/10 10:27:18;;;;;;;4.73;4.43;;;24.90;92.70;;;;;;6099143;23;20445;-85
2021/07/10 10:29:45;;;;;;;4.10;3.80;;;24.90;92.50;;;;;;6100606;23;20423;-84
2021/07/10 10:32:14;;;;;;;4.10;3.70;;;25.00;91.70;;;;;;6099376;23;20443;-85
2021/07/10 10:34:41;;;;;;;5.10;4.70;;;25.00;92.00;;;;;;6099735;23;20422;-85
2021/07/10 10:37:10;;;;;;;3.57;3.30;;;25.10;92.20;;;;;;6099556;23;20414;-85
2021/07/10 10:39:38;;;;;;;3.93;3.73;;;25.10;92.80;;;;;;6099522;23;20445;-85
2021/07/10 10:42:08;;;;;;;4.23;3.87;;;25.00;91.40;;;;;;6098559;23;20509;-85
2021/07/10 10:44:38;;;;;;;4.40;4.10;;;24.90;91.90;;;;;;6098808;23;20899;-85
2021/07/10 10:47:06;;;;;;;3.33;3.13;;;25.10;91.60;;;;;;6099101;23;20452;-84
2021/07/10 10:49:49;;;;;;;4.33;3.97;;;25.30;90.20;;;;;;6100033;23;20422;-85
2021/07/10 10:52:33;;;;;;;4.80;4.33;;;25.40;90.10;;;;;;6099881;23;20752;-84
2021/07/10 10:55:04;;;;;;;4.57;4.27;;;25.40;90.50;;;;;;6099854;23;20706;-85
2021/07/10 10:57:35;;;;;;;4.43;3.73;;;25.60;88.80;;;;;;6099104;23;20772;-85
2021/07/10 11:00:04;;;;;;;3.37;3.17;;;25.70;90.60;;;;;;6099369;23;20761;-85
2021/07/10 11:02:52;;;;;;;4.87;4.60;;;25.90;92.50;;;;;;6098651;23;20434;-85
2021/07/10 11:05:38;;;;;;;4.27;3.87;;;26.20;90.80;;;;;;6099702;23;20404;-84
2021/07/10 11:08:41;;;;;;;3.70;3.50;;;26.60;90.60;;;;;;6100079;23;20439;-84
2021/07/10 11:11:22;;;;;;;4.10;3.80;;;26.90;88.40;;;;;;6099197;23;20407;-85
2021/07/10 11:14:18;;;;;;;3.67;3.43;;;27.40;85.10;;;;;;6107972;23;20392;-85
2021/07/10 11:17:36;;;;;;;3.63;3.43;;;27.90;87.90;;;;;;6110744;23;20414;-86
2021/07/10 11:20:42;;;;;;;;;;;;;;;;;;;;;
2021/07/10 11:23:42;;;;;;;4.00;3.70;;;28.90;81.20;;;;;;6108773;23;20447;-86
2021/07/10 11:26:25;;;;;;;4.97;4.57;;;29.30;84.90;;;;;;6019358;23;20808;-86
2021/07/10 11:29:33;;;;;;;5.97;3.90;;;29.90;82.70;;;;;;6025539;23;20452;-86
2021/07/10 11:35:35;;;;;;;5.13;4.10;;;31.20;74.30;;;;;;6107011;23;20450;-86
2021/07/10 11:38:27;;;;;;;3.90;3.60;;;31.60;68.90;;;;;;6105243;23;20422;-86
2021/07/10 11:41:16;;;;;;;3.40;3.20;;;32.00;70.20;;;;;;6102188;23;20838;-85
2021/07/10 11:44:04;;;;;;;4.10;3.70;;;32.30;69.40;;;;;;6112663;23;20434;-83
2021/07/10 11:47:11;;;;;;;3.50;3.30;;;32.60;64.00;;;;;;6106415;23;20759;-83
2021/07/10 11:52:43;;;;;;;4.70;4.30;;;33.30;62.70;;;;;;6104990;23;20445;-83
2021/07/10 11:55:13;;;;;;;4.60;4.17;;;33.50;63.00;;;;;;6108930;23;20501;-83
2021/07/10 11:57:56;;;;;;;3.83;3.53;;;33.60;61.60;;;;;;6110223;23;20429;-82
2021/07/10 12:08:08;;;;;;;;;;;;;;;;;;;;;
2021/07/10 12:36:51;;;;;;;;;;;;;;;;;;;;;
2021/07/10 12:46:14;;;;;;;3.27;3.03;;;36.40;52.00;;;;;;5798793;24;20500;-83
2021/07/10 12:49:18;;;;;;;3.50;3.30;;;37.00;50.50;;;;;;5914926;24;20453;-83
2021/07/10 12:52:03;;;;;;;4.00;3.80;;;37.50;48.80;;;;;;6048069;23;20467;-83
2021/07/10 12:54:52;;;;;;;3.70;3.50;;;37.30;47.70;;;;;;6081519;23;20420;-85
2021/07/10 12:57:32;;;;;;;3.17;2.97;;;37.30;48.80;;;;;;6107066;23;20703;-86
2021/07/10 13:00:21;;;;;;;4.30;3.90;;;37.50;48.90;;;;;;6112043;23;20393;-86
2021/07/10 13:03:26;;;;;;;;;;;;;;;;;;;;;
2021/07/10 13:06:24;;;;;;;3.33;3.13;;;38.20;47.80;;;;;;6103326;23;20396;-85
2021/07/10 13:09:30;;;;;;;3.60;3.40;;;38.60;45.80;;;;;;5956890;24;20520;-84
2021/07/10 13:12:13;;;;;;;3.63;3.43;;;38.90;46.70;;;;;;5930437;24;20454;-86
2021/07/10 13:18:10;;;;;;;2.63;2.53;;;38.80;46.70;;;;;;6065135;23;20422;-86
2021/07/10 13:20:55;;;;;;;2.53;2.43;;;39.10;42.90;;;;;;6102936;23;20401;-86
2021/07/10 13:23:43;;;;;;;3.17;2.97;;;39.20;44.00;;;;;;6104736;23;20432;-83
2021/07/10 13:26:44;;;;;;;2.63;2.53;;;39.80;46.40;;;;;;6103887;23;20397;-83
2021/07/10 13:29:36;;;;;;;2.87;2.77;;;40.30;43.00;;;;;;6102513;23;20444;-83
2021/07/10 13:32:11;;;;;;;4.00;3.70;;;40.50;42.20;;;;;;6102611;23;20963;-86
2021/07/10 13:35:15;;;;;;;2.97;2.83;;;40.10;41.00;;;;;;6104289;23;20460;-84
2021/07/10 13:38:05;;;;;;;3.63;3.40;;;39.40;41.90;;;;;;6101380;23;20417;-84
2021/07/10 13:40:49;;;;;;;3.90;3.60;;;38.50;42.80;;;;;;6106945;23;20905;-84
2021/07/10 13:43:42;;;;;;;;;;;;;;;;;;;;;
2021/07/10 13:46:19;;;;;;;3.43;3.20;;;36.80;44.10;;;;;;6122769;23;20400;-84
2021/07/10 13:48:59;;;;;;;4.20;3.90;;;35.90;44.50;;;;;;6123312;23;20432;-84
2021/07/10 13:51:37;;;;;;;3.93;3.73;;;35.10;46.30;;;;;;6123301;23;20397;-84
2021/07/10 13:54:31;;;;;;;3.77;3.57;;;34.40;48.20;;;;;;6123472;23;20371;-83
2021/07/10 13:57:26;;;;;;;4.13;3.77;;;33.70;48.90;;;;;;6123676;23;20380;-84
2021/07/10 14:00:17;;;;;;;4.20;4.00;;;33.00;50.70;;;;;;6123735;23;20381;-86
2021/07/10 14:02:54;;;;;;;3.93;3.73;;;32.60;52.20;;;;;;6123057;23;20506;-85
2021/07/10 14:05:27;;;;;;;3.87;3.60;;;32.20;53.10;;;;;;6123335;23;20388;-85
2021/07/10 14:23:37;;;;;;;4.10;3.73;;;32.60;55.50;;;;;;6057405;23;20445;-85
2021/07/10 14:26:04;;;;;;;3.73;3.53;;;33.10;52.70;;;;;;6121815;23;20902;-85
2021/07/10 14:28:30;;;;;;;4.10;3.80;;;33.70;51.60;;;;;;6117670;23;20461;-86
2021/07/10 14:30:58;;;;;;;3.70;3.50;;;34.10;51.10;;;;;;6115966;23;20408;-85
2021/07/10 14:33:26;;;;;;;4.60;4.20;;;34.60;50.00;;;;;;6099762;23;20440;-83
2021/07/10 14:35:54;;;;;;;3.87;3.67;;;35.30;49.40;;;;;;6098178;23;20412;-83
2021/07/10 14:38:22;;;;;;;4.00;3.70;;;36.20;48.30;;;;;;6098483;23;20500;-84
2021/07/10 14:40:49;;;;;;;3.20;3.00;;;37.10;47.20;;;;;;6098040;23;20421;-84
2021/07/10 14:43:34;;;;;;;3.70;3.50;;;38.10;46.00;;;;;;6098782;23;20469;-84
2021/07/10 14:46:01;;;;;;;3.50;3.30;;;39.30;44.30;;;;;;6097279;23;20708;-83
2021/07/10 14:48:32;;;;;;;3.50;3.27;;;40.10;42.90;;;;;;6097353;23;20458;-83
2021/07/10 14:51:49;;;;;;;3.50;3.30;;;40.90;40.90;;;;;;6097100;23;20861;-84
2021/07/10 14:57:30;;;;;;;2.37;2.27;;;41.90;36.90;;;;;;5867868;24;20937;-84
2021/07/10 15:00:03;;;;;;;2.80;2.60;;;42.40;38.70;;;;;;5933050;23;20421;-84
2021/07/10 15:03:20;;;;;;;;;;;;;;;;;;;;;
2021/07/10 15:05:53;;;;;;;3.00;2.90;;;43.20;36.50;;;;;;5968101;23;20504;-84
2021/07/10 15:23:50;;;;;;;3.83;2.67;;;43.40;33.80;;;;;;5808895;24;20456;-85
2021/07/10 15:36:09;;;;;;;2.77;2.67;;;43.50;32.30;;;;;;5827210;23;20403;-83
2021/07/10 15:38:38;;;;;;;2.53;2.43;;;43.70;33.10;;;;;;6095820;23;20464;-83
2021/07/10 15:41:29;;;;;;;2.33;2.23;;;43.90;33.20;;;;;;6095962;23;20440;-83
2021/07/10 15:43:56;;;;;;;3.53;3.23;;;44.00;32.40;;;;;;6096526;23;20424;-83
2021/07/10 15:46:29;;;;;;;3.57;3.37;;;44.10;32.30;;;;;;6095729;23;20896;-84
2021/07/10 15:49:04;;;;;;;3.73;3.53;;;44.30;32.50;;;;;;6095566;23;20432;-84
2021/07/10 15:51:38;;;;;;;2.93;2.83;;;44.50;31.90;;;;;;6095149;23;20388;-84
2021/07/10 15:54:10;;;;;;;4.30;4.10;;;44.50;31.30;;;;;;6096088;23;20377;-83
2021/07/10 15:56:39;;;;;;;2.47;2.37;;;44.60;30.80;;;;;;6095813;23;20397;-84
2021/07/10 15:59:12;;;;;;;3.43;3.23;;;44.60;30.30;;;;;;6096855;23;20930;-83
2021/07/10 16:01:46;;;;;;;2.80;2.70;;;44.80;30.80;;;;;;6097666;23;20511;-84
2021/07/10 16:04:15;;;;;;;2.77;2.57;;;44.80;29.60;;;;;;6098047;23;20731;-84
2021/07/10 16:06:43;;;;;;;2.27;2.17;;;44.40;29.80;;;;;;6097761;23;20417;-84
2021/07/10 16:09:12;;;;;;;3.27;3.10;;;44.40;30.50;;;;;;6097845;23;20919;-84
2021/07/10 16:12:00;;;;;;;2.93;2.80;;;44.40;30.10;;;;;;6097579;23;20437;-83
2021/07/10 16:14:56;;;;;;;2.97;2.77;;;44.40;29.90;;;;;;6097311;23;20495;-84
2021/07/10 16:18:19;;;;;;;;;;;;;;;;;;;;;
2021/07/10 16:27:15;;;;;;;2.53;2.43;;;44.50;30.00;;;;;;6061463;23;20437;-84
2021/07/10 16:29:44;;;;;;;2.70;2.60;;;44.40;29.60;;;;;;6097675;23;20437;-83
2021/07/10 16:32:26;;;;;;;;;;;;;;;;;;;;;
2021/07/10 16:35:02;;;;;;;2.80;2.60;;;44.20;29.30;;;;;;6100980;23;20420;-83
2021/07/10 16:38:17;;;;;;;2.37;2.27;;;44.10;29.10;;;;;;6100334;23;20549;-84
2021/07/10 16:47:43;;;;;;;2.67;2.50;;;44.10;29.40;;;;;;6083890;23;20758;-84
2021/07/10 16:50:23;;;;;;;2.57;2.47;;;44.10;28.80;;;;;;5954769;24;20808;-84
2021/07/10 16:53:05;;;;;;;2.70;2.60;;;43.90;29.20;;;;;;5955216;24;20961;-83
2021/07/10 17:02:37;;;;;;;2.63;2.43;;;43.70;29.60;;;;;;5809001;24;20506;-83
2021/07/10 17:06:07;;;;;;;;;;;;;;;;;;;;;
2021/07/10 18:13:03;;;;;;;4.50;4.10;;;33.30;44.50;;;;;;6086403;23;20465;-92
2021/07/10 18:15:29;;;;;;;4.13;3.83;;;32.70;45.30;;;;;;6095965;23;20474;-89
2021/07/10 18:17:56;;;;;;;3.37;3.17;;;32.30;45.80;;;;;;6095294;23;20439;-89
2021/07/10 18:20:23;;;;;;;4.60;4.30;;;31.80;46.80;;;;;;6095657;23;20453;-89
2021/07/10 18:22:50;;;;;;;4.47;4.07;;;31.30;47.50;;;;;;6094665;23;20511;-90
2021/07/10 18:25:17;;;;;;;5.17;4.87;;;30.80;48.60;;;;;;6095124;23;20418;-89
2021/07/10 18:27:45;;;;;;;5.17;4.70;;;30.30;49.50;;;;;;6095942;23;20417;-89
2021/07/10 18:30:15;;;;;;;4.60;4.30;;;29.70;50.60;;;;;;6096856;23;20797;-89
2021/07/10 18:32:43;;;;;;;3.83;3.53;;;29.30;51.70;;;;;;6097064;23;20396;-87
2021/07/10 18:35:11;;;;;;;4.03;3.73;;;28.80;52.80;;;;;;6098066;23;20419;-88
2021/07/10 18:38:05;;;;;;;;;;;;;;;;;;;;;
2021/07/10 18:40:33;;;;;;;3.60;3.40;;;28.10;54.80;;;;;;6106461;23;20469;-87
2021/07/10 18:42:59;;;;;;;4.23;3.97;;;27.60;55.80;;;;;;6104904;23;20509;-85
2021/07/10 18:45:28;;;;;;;4.40;4.20;;;27.30;56.90;;;;;;6097700;23;20798;-86
2021/07/10 18:47:55;;;;;;;4.20;3.90;;;26.90;58.70;;;;;;6096359;23;20423;-86
2021/07/10 18:50:30;;;;;;;4.47;4.17;;;26.50;59.90;;;;;;6097400;23;20743;-86
2021/07/10 18:52:57;;;;;;;4.47;4.17;;;26.20;61.40;;;;;;6096528;23;20515;-86
2021/07/10 18:55:24;;;;;;;5.03;4.63;;;26.00;62.70;;;;;;6100418;23;20409;-83
2021/07/10 18:57:50;;;;;;;5.47;4.30;;;25.80;63.70;;;;;;6106621;23;20420;-83
2021/07/10 19:00:20;;;;;;;4.50;4.20;;;25.70;64.10;;;;;;6107664;23;20445;-83
2021/07/10 19:02:48;;;;;;;4.70;4.40;;;25.70;64.80;;;;;;6108088;23;20411;-83
2021/07/10 19:05:16;;;;;;;4.97;4.60;;;25.60;65.70;;;;;;6106658;23;20422;-84
2021/07/10 19:07:43;;;;;;;5.40;5.00;;;25.50;66.50;;;;;;6107272;23;20414;-84
2021/07/10 19:10:12;;;;;;;5.57;5.17;;;25.30;67.40;;;;;;6111860;23;20410;-83
2021/07/10 19:12:39;;;;;;;6.60;4.93;;;25.20;68.40;;;;;;6092524;23;20425;-83
2021/07/10 19:15:08;;;;;;;5.13;4.83;;;25.00;69.20;;;;;;6080773;23;20418;-83
2021/07/10 19:17:37;;;;;;;4.83;4.53;;;24.90;70.70;;;;;;6080933;23;20427;-84
2021/07/10 19:20:06;;;;;;;4.77;4.43;;;24.70;71.40;;;;;;6079839;23;20513;-83
2021/07/10 19:22:34;;;;;;;5.27;4.90;;;24.60;72.20;;;;;;6075689;23;20421;-83
2021/07/10 19:25:06;;;;;;;6.07;5.57;;;24.50;73.20;;;;;;6074499;23;20439;-84
2021/07/10 19:27:36;;;;;;;5.50;5.20;;;24.40;74.30;;;;;;6076657;23;20421;-82
2021/07/10 19:30:04;;;;;;;5.40;5.00;;;24.30;75.30;;;;;;6077469;23;20753;-82
2021/07/10 19:32:33;;;;;;;6.60;6.10;;;24.20;76.20;;;;;;6074416;23;20419;-85
2021/07/10 19:35:10;;;;;;;4.90;4.60;;;24.10;77.60;;;;;;6044029;23;20437;-85
2021/07/10 19:37:46;;;;;;;5.80;5.30;;;24.00;78.60;;;;;;6069123;23;20421;-86
2021/07/10 19:40:16;;;;;;;5.27;4.97;;;23.90;79.80;;;;;;6067539;23;20440;-87
2021/07/10 19:42:43;;;;;;;5.27;4.90;;;23.80;81.50;;;;;;6069410;23;20613;-86
2021/07/10 19:45:12;;;;;;;5.67;5.37;;;23.60;83.40;;;;;;6072933;23;20436;-86
2021/07/10 19:47:39;;;;;;;5.60;5.20;;;23.60;86.00;;;;;;6073499;23;20421;-86
2021/07/10 19:50:08;;;;;;;5.90;5.40;;;23.50;87.50;;;;;;6073923;23;20416;-86
2021/07/10 19:52:35;;;;;;;5.83;5.30;;;23.50;87.10;;;;;;6074033;23;20913;-87
2021/07/10 19:55:04;;;;;;;5.90;5.40;;;23.40;87.80;;;;;;6073982;23;20424;-86
2021/07/10 19:57:31;;;;;;;6.67;6.17;;;23.30;88.70;;;;;;6073721;23;20414;-86
2021/07/10 20:00:00;;;;;;;6.07;5.57;;;23.30;89.60;;;;;;6075157;23;20778;-85
2021/07/10 20:02:28;;;;;;;5.60;5.30;;;23.30;90.00;;;;;;6074547;23;20492;-85
2021/07/10 20:04:55;;;;;;;5.20;4.90;;;23.30;90.30;;;;;;6075505;23;20433;-85
2021/07/10 20:07:21;;;;;;;5.50;5.10;;;23.20;90.40;;;;;;6075765;23;20790;-85
2021/07/10 20:09:48;;;;;;;5.80;5.40;;;23.10;90.90;;;;;;6074138;23;20420;-85
2021/07/10 20:12:22;;;;;;;6.63;6.23;;;23.00;91.40;;;;;;6074393;23;20419;-86
2021/07/10 20:14:48;;;;;;;6.93;6.50;;;23.00;91.90;;;;;;6075336;23;20433;-85
2021/07/10 20:17:15;;;;;;;5.97;5.47;;;22.90;92.20;;;;;;6076389;23;20418;-85
2021/07/10 20:19:45;;;;;;;5.07;4.67;;;22.80;92.80;;;;;;6079445;23;20449;-85
2021/07/10 20:22:12;;;;;;;5.40;5.00;;;22.60;93.50;;;;;;6076693;23;20425;-86
2021/07/10 20:24:41;;;;;;;4.90;4.57;;;22.40;94.50;;;;;;6079619;23;20516;-85
2021/07/10 20:27:08;;;;;;;5.03;4.63;;;22.20;95.90;;;;;;6079531;23;20418;-85
2021/07/10 20:29:42;;;;;;;4.83;4.33;;;22.00;97.60;;;;;;6078937;23;20408;-85
2021/07/10 20:32:09;;;;;;;4.50;4.30;;;21.80;98.80;;;;;;6078574;23;20410;-85
2021/07/10 20:34:37;;;;;;;3.43;3.23;;;21.60;99.90;;;;;;6079356;23;20494;-85
2021/07/10 20:37:08;;;;;;;4.07;3.77;;;21.40;99.90;;;;;;6080232;23;20443;-85
2021/07/10 20:39:35;;;;;;;3.90;3.60;;;21.20;99.30;;;;;;6078938;23;20432;-85
2021/07/10 20:42:05;;;;;;;3.77;3.57;;;21.20;99.20;;;;;;6078488;23;20420;-86
2021/07/10 20:44:31;;;;;;;4.70;4.40;;;21.10;99.20;;;;;;6080057;23;20440;-85
2021/07/10 20:46:59;;;;;;;3.60;3.30;;;21.00;99.90;;;;;;6078936;23;20425;-85
2021/07/10 20:49:26;;;;;;;3.80;3.50;;;21.00;99.20;;;;;;6077478;23;20414;-85
2021/07/10 20:51:53;;;;;;;4.03;2.50;;;20.90;98.90;;;;;;6077980;23;20409;-85
2021/07/10 20:54:20;;;;;;;3.80;3.50;;;20.90;98.20;;;;;;6078284;23;20904;-85
2021/07/10 20:56:49;;;;;;;3.17;2.97;;;20.80;98.30;;;;;;6077672;23;20901;-85
2021/07/10 20:59:15;;;;;;;3.13;2.93;;;20.80;98.70;;;;;;6078774;23;20418;-86
2021/07/10 21:01:42;;;;;;;3.37;3.17;;;20.70;99.10;;;;;;6075453;23;20976;-85
2021/07/10 21:04:11;;;;;;;2.60;2.20;;;20.60;99.90;;;;;;6076859;23;20438;-85
2021/07/10 21:06:38;;;;;;;2.30;2.20;;;20.40;99.90;;;;;;6078757;23;20414;-84
2021/07/10 21:09:14;;;;;;;2.73;2.53;;;20.30;99.90;;;;;;6079686;23;20413;-85
2021/07/10 21:11:42;;;;;;;2.47;2.30;;;20.10;99.90;;;;;;6079032;23;20495;-84
2021/07/10 21:14:09;;;;;;;1.87;1.63;;;20.10;99.90;;;;;;6079981;23;20437;-85
2021/07/10 21:16:36;;;;;;;2.30;2.10;;;20.00;99.90;;;;;;6079519;23;20413;-85
2021/07/10 21:19:03;;;;;;;1.77;1.67;;;19.80;99.90;;;;;;6079416;23;20409;-84
2021/07/10 21:21:31;;;;;;;2.07;1.87;;;19.70;99.90;;;;;;6079821;23;20473;-85
2021/07/10 21:23:58;;;;;;;1.43;1.33;;;19.60;99.90;;;;;;6079125;23;20438;-84
2021/07/10 21:26:26;;;;;;;1.80;1.70;;;19.50;99.90;;;;;;6079199;23;20742;-85
2021/07/10 21:28:53;;;;;;;2.10;2.00;;;19.30;99.90;;;;;;6078840;23;20788;-85
2021/07/10 21:31:20;;;;;;;2.40;2.17;;;19.20;99.90;;;;;;6077627;23;20793;-85
2021/07/10 21:33:47;;;;;;;1.80;1.70;;;19.10;99.90;;;;;;6079282;23;20441;-85
2021/07/10 21:36:21;;;;;;;2.20;2.10;;;19.10;99.90;;;;;;6079953;23;20421;-84
2021/07/10 21:38:49;;;;;;;2.30;2.10;;;18.90;99.90;;;;;;6079589;23;20389;-85
2021/07/10 21:41:16;;;;;;;3.13;1.87;;;18.80;99.90;;;;;;6079009;23;20408;-85
2021/07/10 21:43:50;;;;;;;1.87;1.73;;;18.80;99.90;;;;;;6078317;23;20446;-85
2021/07/10 21:46:17;;;;;;;1.90;1.80;;;18.80;99.90;;;;;;6079115;23;20403;-85
2021/07/10 21:48:44;;;;;;;1.90;1.80;;;18.80;99.90;;;;;;6078288;23;20413;-84
2021/07/10 21:51:11;;;;;;;2.17;2.07;;;18.80;99.90;;;;;;6078093;23;20448;-85
2021/07/10 21:53:37;;;;;;;2.17;2.07;;;18.90;99.90;;;;;;6075699;23;20441;-86
2021/07/10 21:56:06;;;;;;;2.47;2.27;;;18.80;99.90;;;;;;6076447;23;20416;-85
2021/07/10 21:58:32;;;;;;;2.63;2.43;;;18.80;99.90;;;;;;6077201;23;20410;-86
2021/07/10 22:01:23;;;;;;;4.07;3.77;;;18.80;99.90;;;;;;6078189;23;20976;-86
2021/07/10 22:03:49;;;;;;;2.50;2.30;;;18.70;99.90;;;;;;6070179;23;20433;-86
2021/07/10 22:06:16;;;;;;;3.53;2.20;;;18.60;99.90;;;;;;6067482;23;20420;-86
2021/07/10 22:08:46;;;;;;;2.87;2.67;;;18.50;99.90;;;;;;6068111;23;20409;-86
2021/07/10 22:11:15;;;;;;;2.73;2.30;;;18.50;99.90;;;;;;6068182;23;20536;-85
2021/07/10 22:13:42;;;;;;;3.60;2.33;;;18.30;99.90;;;;;;6067732;23;20436;-85
2021/07/10 22:16:09;;;;;;;2.77;2.57;;;18.40;99.90;;;;;;6069124;23;20753;-85
2021/07/10 22:18:36;;;;;;;2.10;1.90;;;18.40;99.90;;;;;;6067889;23;20424;-85
2021/07/10 22:21:04;;;;;;;4.23;2.30;;;18.50;99.90;;;;;;6067754;23;20725;-85
2021/07/10 22:23:30;;;;;;;2.40;2.30;;;18.50;99.90;;;;;;6069136;23;20442;-85
2021/07/10 22:25:59;;;;;;;2.80;2.60;;;18.40;99.90;;;;;;6068159;23;20490;-85
2021/07/10 22:28:28;;;;;;;4.10;3.23;;;18.50;99.90;;;;;;6068894;23;20409;-86
2021/07/10 22:30:55;;;;;;;3.70;2.77;;;18.50;99.90;;;;;;6069531;23;20452;-85
2021/07/10 22:33:22;;;;;;;3.63;3.30;;;18.50;99.90;;;;;;6067283;23;20437;-85
2021/07/10 22:35:49;;;;;;;3.00;2.80;;;18.50;99.90;;;;;;6065643;23;20413;-85
2021/07/10 22:38:17;;;;;;;3.13;2.73;;;18.40;99.90;;;;;;6066098;23;20425;-85
2021/07/10 22:40:44;;;;;;;3.00;2.70;;;18.40;99.90;;;;;;6066371;23;20455;-85
2021/07/10 22:43:11;;;;;;;3.30;2.80;;;18.40;99.90;;;;;;6066416;23;20440;-85
2021/07/10 22:45:39;;;;;;;3.40;3.20;;;18.40;99.90;;;;;;6067585;23;20926;-84
2021/07/10 22:48:06;;;;;;;3.07;2.20;;;18.40;99.90;;;;;;6067686;23;20424;-85
2021/07/10 22:50:33;;;;;;;3.43;2.90;;;18.40;99.90;;;;;;6067305;23;20454;-85
2021/07/10 22:52:59;;;;;;;2.90;2.70;;;18.40;99.90;;;;;;6067178;23;20420;-84
2021/07/10 22:55:26;;;;;;;3.30;3.10;;;18.40;99.90;;;;;;6067137;23;20413;-85
2021/07/10 22:57:53;;;;;;;3.13;2.93;;;18.40;99.90;;;;;;6067470;23;20413;-85
2021/07/10 23:00:20;;;;;;;2.30;2.20;;;18.30;99.90;;;;;;6067345;23;20412;-85
2021/07/10 23:02:49;;;;;;;4.00;2.77;;;18.30;99.90;;;;;;6068150;23;20930;-85
2021/07/10 23:05:15;;;;;;;3.20;3.00;;;18.30;99.90;;;;;;6071045;23;20417;-85
2021/07/10 23:07:42;;;;;;;2.50;2.30;;;18.30;99.90;;;;;;6072389;23;20413;-85
2021/07/10 23:10:10;;;;;;;3.10;2.90;;;18.30;99.90;;;;;;6074565;23;20721;-86
2021/07/10 23:12:37;;;;;;;2.93;2.73;;;18.30;99.90;;;;;;6074759;23;20425;-84
2021/07/10 23:15:25;;;;;;;2.40;2.20;;;18.20;99.90;;;;;;6097792;23;20535;-81
2021/07/10 23:18:08;;;;;;;2.00;1.90;;;18.20;99.90;;;;;;6109190;23;20415;-81
2021/07/10 23:21:01;;;;;;;3.23;3.03;;;18.20;99.90;;;;;;6110845;23;20429;-81
2021/07/10 23:23:28;;;;;;;2.73;2.53;;;18.20;99.90;;;;;;6102211;23;20447;-83
2021/07/10 23:25:55;;;;;;;3.00;2.63;;;18.20;99.90;;;;;;6112126;23;20443;-83
2021/07/10 23:28:21;;;;;;;2.70;2.50;;;18.10;99.90;;;;;;6111792;23;20892;-83
2021/07/10 23:30:57;;;;;;;2.63;2.47;;;18.10;99.90;;;;;;6111939;23;20450;-83
2021/07/10 23:33:25;;;;;;;3.13;2.73;;;18.10;99.90;;;;;;6112359;23;20441;-83
2021/07/10 23:35:52;;;;;;;3.10;2.80;;;18.00;99.90;;;;;;6112902;23;20425;-83
2021/07/10 23:38:19;;;;;;;2.80;2.70;;;18.00;99.90;;;;;;6111595;23;20426;-83
2021/07/10 23:40:45;;;;;;;2.50;2.30;;;17.90;99.90;;;;;;6112539;23;20425;-82
2021/07/10 23:43:14;;;;;;;2.53;2.30;;;17.80;99.90;;;;;;6113176;23;20411;-83
2021/07/10 23:45:41;;;;;;;2.50;2.30;;;17.80;99.90;;;;;;6113420;23;20838;-82
2021/07/10 23:48:08;;;;;;;3.20;2.90;;;17.80;99.90;;;;;;6113048;23;20410;-83
2021/07/10 23:50:37;;;;;;;2.60;2.50;;;17.80;99.90;;;;;;6112256;23;20444;-83
2021/07/10 23:53:06;;;;;;;3.03;2.83;;;17.80;99.90;;;;;;6111998;23;20430;-83
2021/07/10 23:55:32;;;;;;;2.77;2.57;;;17.80;99.90;;;;;;6110424;23;20419;-83
2021/07/10 23:57:59;;;;;;;2.57;2.40;;;17.80;99.90;;;;;;6111978;23;20419;-81
